createdAt,value
2023-04-28T00:00:43.866Z,16.05
2023-04-28T00:03:13.662Z,14.98
2023-04-28T00:05:42.372Z,15.10
2023-04-28T00:08:10.746Z,14.45
2023-04-28T00:10:39.066Z,13.50
2023-04-28T00:13:07.370Z,17.42
2023-04-28T00:15:35.812Z,15.90
2023-04-28T00:18:04.165Z,13.65
2023-04-28T00:20:33.945Z,13.23
2023-04-28T00:23:02.416Z,13.63
2023-04-28T00:25:31.191Z,15.38
2023-04-28T00:27:59.807Z,16.17
2023-04-28T00:30:28.169Z,20.23
2023-04-28T00:32:56.632Z,13.60
2023-04-28T00:35:25.051Z,12.90
2023-04-28T00:37:54.729Z,14.80
2023-04-28T00:40:23.117Z,17.60
2023-04-28T00:42:51.473Z,12.35
2023-04-28T00:45:19.943Z,16.10
2023-04-28T00:47:48.649Z,16.63
2023-04-28T00:50:18.641Z,15.23
2023-04-28T00:52:47.006Z,14.75
2023-04-28T00:55:17.841Z,16.92
2023-04-28T00:57:46.828Z,15.07
2023-04-28T01:00:17.279Z,15.50
2023-04-28T01:02:46.191Z,12.55
2023-04-28T01:05:16.143Z,14.40
2023-04-28T01:07:44.463Z,13.50
2023-04-28T01:10:12.867Z,15.13
2023-04-28T01:12:42.695Z,13.20
2023-04-28T01:15:17.637Z,17.05
2023-04-28T01:17:47.344Z,13.23
2023-04-28T01:20:15.877Z,14.43
2023-04-28T01:22:44.247Z,15.35
2023-04-28T01:25:13.932Z,18.23
2023-04-28T01:27:42.510Z,14.60
2023-04-28T01:30:11.745Z,13.82
2023-04-28T01:32:40.307Z,15.02
2023-04-28T01:35:10.218Z,16.60
2023-04-28T01:37:38.601Z,16.15
2023-04-28T01:40:08.556Z,17.17
2023-04-28T01:42:38.262Z,15.25
2023-04-28T01:45:07.679Z,15.48
2023-04-28T01:47:36.150Z,18.60
2023-04-28T01:50:04.979Z,14.45
2023-04-28T01:52:33.643Z,14.38
2023-04-28T01:55:02.316Z,15.05
2023-04-28T01:57:30.690Z,16.55
2023-04-28T02:00:00.820Z,12.70
2023-04-28T02:02:29.190Z,17.42
2023-04-28T02:04:58.221Z,16.63
2023-04-28T02:07:26.685Z,15.63
2023-04-28T02:09:54.964Z,14.85
2023-04-28T02:12:23.302Z,14.27
2023-04-28T02:14:52.229Z,16.67
2023-04-28T02:17:22.075Z,15.20
2023-04-28T02:19:56.364Z,19.20
2023-04-28T02:22:24.957Z,16.23
2023-04-28T02:24:53.359Z,18.45
2023-04-28T02:27:22.907Z,17.42
2023-04-28T02:29:51.709Z,15.40
2023-04-28T02:32:21.808Z,14.93
2023-04-28T02:34:55.409Z,18.27
2023-04-28T02:37:23.765Z,13.00
2023-04-28T02:39:52.139Z,13.80
2023-04-28T02:42:21.005Z,15.23
2023-04-28T02:44:49.545Z,14.70
2023-04-28T02:47:17.941Z,15.25
2023-04-28T02:49:47.744Z,15.27
2023-04-28T02:52:16.316Z,16.83
2023-04-28T02:54:48.729Z,17.02
2023-04-28T02:57:17.212Z,20.10
2023-04-28T02:59:45.551Z,17.55
2023-04-28T03:02:13.928Z,16.98
2023-04-28T03:04:42.322Z,17.15
2023-04-28T03:07:12.090Z,13.60
2023-04-28T03:09:42.205Z,15.02
2023-04-28T03:12:10.732Z,16.13
2023-04-28T03:14:39.019Z,14.30
2023-04-28T03:17:07.581Z,17.35
2023-04-28T03:19:36.395Z,19.08
2023-04-28T03:22:04.765Z,17.02
2023-04-28T03:24:34.413Z,17.98
2023-04-28T03:27:03.772Z,19.25
2023-04-28T03:29:32.107Z,16.55
2023-04-28T03:32:00.730Z,15.00
2023-04-28T03:34:29.163Z,17.65
2023-04-28T03:36:57.549Z,16.17
2023-04-28T03:39:25.845Z,16.40
2023-04-28T03:41:55.572Z,14.30
2023-04-28T03:44:24.345Z,19.05
2023-04-28T03:46:52.667Z,16.98
2023-04-28T03:49:21.086Z,18.00
2023-04-28T03:51:51.293Z,14.98
2023-04-28T03:54:19.611Z,18.55
2023-04-28T03:56:48.041Z,17.40
2023-04-28T03:59:18.056Z,19.48
2023-04-28T04:01:46.585Z,15.75
2023-04-28T04:04:15.129Z,17.85
2023-04-28T04:06:43.781Z,15.75
2023-04-28T04:09:12.127Z,21.20
2023-04-28T04:11:40.658Z,18.88
2023-04-28T04:14:09.068Z,20.23
2023-04-28T04:16:38.907Z,19.25
2023-04-28T04:19:07.202Z,19.33
2023-04-28T04:21:37.097Z,16.80
2023-04-28T04:24:05.987Z,17.80
2023-04-28T04:26:34.277Z,19.63
2023-04-28T04:29:02.708Z,18.58
2023-04-28T04:31:31.203Z,18.13
2023-04-28T04:34:00.949Z,17.83
2023-04-28T04:36:29.330Z,19.73
2023-04-28T04:38:57.693Z,18.58
2023-04-28T04:41:27.837Z,23.05
2023-04-28T04:43:56.208Z,19.80
2023-04-28T04:46:24.692Z,22.30
2023-04-28T04:48:53.038Z,25.30
2023-04-28T04:51:22.744Z,26.63
2023-04-28T04:53:50.991Z,22.50
2023-04-28T04:56:19.467Z,24.10
2023-04-28T04:58:47.970Z,25.00
2023-04-28T05:01:16.326Z,25.55
2023-04-28T05:03:44.743Z,23.42
2023-04-28T05:06:13.268Z,21.05
2023-04-28T05:08:43.006Z,26.02
2023-04-28T05:11:11.832Z,26.30
2023-04-28T05:13:40.726Z,22.80
2023-04-28T05:16:09.222Z,26.55
2023-04-28T05:18:37.575Z,22.38
2023-04-28T05:21:06.365Z,26.15
2023-04-28T05:23:34.704Z,24.85
2023-04-28T05:26:04.902Z,27.15
2023-04-28T05:28:33.190Z,27.02
2023-04-28T05:31:01.610Z,30.17
2023-04-28T05:33:31.103Z,29.40
2023-04-28T05:35:59.760Z,25.80
2023-04-28T05:38:28.291Z,28.38
2023-04-28T05:40:56.626Z,25.85
2023-04-28T05:43:26.378Z,24.80
2023-04-28T05:45:54.831Z,28.35
2023-04-28T05:48:23.285Z,26.75
2023-04-28T05:50:51.650Z,28.45
2023-04-28T05:53:19.972Z,28.73
2023-04-28T05:55:48.910Z,29.35
2023-04-28T05:58:17.190Z,27.98
2023-04-28T06:00:46.958Z,28.73
2023-04-28T06:03:18.854Z,29.90
2023-04-28T06:05:47.743Z,31.67
2023-04-28T06:08:16.158Z,35.88
2023-04-28T06:10:44.483Z,35.42
2023-04-28T06:13:14.476Z,28.75
2023-04-28T06:15:43.520Z,31.13
2023-04-28T06:18:19.117Z,32.10
2023-04-28T06:20:52.497Z,35.80
2023-04-28T06:23:20.824Z,33.70
2023-04-28T06:25:49.585Z,32.83
2023-04-28T06:28:18.123Z,33.13
2023-04-28T06:30:46.592Z,35.05
2023-04-28T06:33:16.281Z,32.03
2023-04-28T06:35:44.668Z,35.05
2023-04-28T06:38:12.960Z,42.95
2023-04-28T06:40:41.755Z,35.65
2023-04-28T06:43:10.082Z,37.58
2023-04-28T06:45:38.637Z,40.25
2023-04-28T06:48:08.258Z,38.58
2023-04-28T06:50:38.681Z,38.95
2023-04-28T06:53:07.639Z,34.70
2023-04-28T06:55:36.372Z,36.30
2023-04-28T06:58:04.769Z,41.70
2023-04-28T07:00:33.256Z,39.95
2023-04-28T07:03:02.211Z,38.08
2023-04-28T07:05:30.702Z,39.10
2023-04-28T07:08:00.732Z,42.10
2023-04-28T07:10:29.093Z,45.00
2023-04-28T07:12:58.968Z,37.45
2023-04-28T07:15:27.375Z,36.90
2023-04-28T07:17:55.770Z,41.33
2023-04-28T07:20:24.279Z,42.60
2023-04-28T07:22:52.792Z,42.33
2023-04-28T07:25:22.677Z,46.53
2023-04-28T07:27:51.609Z,44.47
2023-04-28T07:32:53.964Z,40.75
2023-04-28T07:35:22.740Z,43.88
2023-04-28T07:37:51.239Z,42.15
2023-04-28T07:40:22.002Z,44.53
2023-04-28T07:42:50.444Z,44.88
2023-04-28T07:45:18.818Z,45.45
2023-04-28T07:47:47.377Z,49.60
2023-04-28T07:50:16.217Z,42.50
2023-04-28T07:52:44.683Z,47.00
2023-04-28T07:55:13.003Z,41.88
2023-04-28T07:57:43.226Z,46.45
2023-04-28T08:00:12.691Z,40.53
2023-04-28T08:02:41.371Z,38.10
2023-04-28T08:05:11.033Z,39.55
2023-04-28T08:07:39.887Z,39.13
2023-04-28T08:10:10.466Z,38.55
2023-04-28T08:12:40.905Z,41.72
2023-04-28T08:15:12.868Z,46.58
2023-04-28T08:17:41.956Z,43.25
2023-04-28T08:20:11.576Z,40.60
2023-04-28T08:22:40.268Z,40.75
2023-04-28T08:25:12.048Z,43.70
2023-04-28T08:27:40.777Z,39.03
2023-04-28T08:30:11.791Z,42.90
2023-04-28T08:32:40.425Z,40.25
2023-04-28T08:35:09.700Z,41.90
2023-04-28T08:37:38.092Z,38.22
2023-04-28T08:40:11.291Z,43.95
2023-04-28T08:42:40.028Z,40.33
2023-04-28T08:45:11.470Z,42.70
2023-04-28T08:47:45.953Z,40.65
2023-04-28T08:50:15.707Z,41.83
2023-04-28T08:52:44.645Z,44.60
2023-04-28T08:55:14.403Z,42.35
2023-04-28T08:57:48.245Z,44.97
2023-04-28T09:00:18.632Z,39.97
2023-04-28T09:02:47.292Z,39.63
2023-04-28T09:05:16.200Z,39.95
2023-04-28T09:07:52.285Z,39.97
2023-04-28T09:10:23.222Z,42.50
2023-04-28T09:12:55.734Z,40.22
2023-04-28T09:15:33.332Z,41.80
2023-04-28T09:18:03.992Z,37.85
2023-04-28T09:20:34.429Z,40.58
2023-04-28T09:23:17.485Z,36.67
2023-04-28T09:26:04.744Z,42.03
2023-04-28T09:28:33.637Z,35.08
2023-04-28T09:31:04.035Z,34.25
2023-04-28T09:33:32.640Z,35.53
2023-04-28T09:36:01.209Z,32.20
2023-04-28T09:38:29.524Z,31.42
2023-04-28T09:41:00.383Z,34.28
2023-04-28T09:43:31.263Z,26.55
2023-04-28T09:46:04.466Z,29.77
2023-04-28T09:48:35.002Z,28.05
2023-04-28T09:51:06.035Z,26.60
2023-04-28T09:53:35.703Z,23.80
2023-04-28T09:56:06.531Z,22.02
2023-04-28T09:58:41.958Z,22.77
2023-04-28T10:01:13.044Z,21.52
2023-04-28T10:03:42.078Z,19.30
2023-04-28T10:06:10.796Z,21.13
2023-04-28T10:08:40.278Z,20.48
2023-04-28T10:11:10.072Z,21.80
2023-04-28T10:13:39.044Z,20.02
2023-04-28T10:16:09.396Z,19.58
2023-04-28T10:18:39.408Z,17.10
2023-04-28T10:21:09.534Z,17.38
2023-04-28T10:24:21.947Z,17.15
2023-04-28T10:27:11.341Z,18.55
2023-04-28T10:29:39.794Z,17.27
2023-04-28T10:32:28.928Z,15.77
2023-04-28T10:35:48.145Z,16.88
2023-04-28T10:38:17.719Z,16.30
2023-04-28T10:40:50.594Z,14.23
2023-04-28T10:43:40.675Z,12.05
2023-04-28T10:46:12.396Z,12.75
2023-04-28T10:48:57.743Z,8.90
2023-04-28T10:51:33.719Z,7.28
2023-04-28T10:54:20.652Z,8.95
2023-04-28T10:57:23.194Z,9.57
2023-04-28T10:59:53.149Z,14.60
2023-04-28T11:02:44.414Z,11.45
2023-04-28T11:05:19.231Z,10.80
2023-04-28T11:08:37.231Z,13.02
2023-04-28T11:11:26.732Z,11.73
2023-04-28T11:13:56.865Z,10.43
2023-04-28T11:16:27.040Z,10.13
2023-04-28T11:19:11.813Z,5.25
2023-04-28T11:21:41.873Z,5.28
2023-04-28T11:24:12.967Z,5.70
2023-04-28T11:26:42.560Z,6.40
2023-04-28T11:29:11.751Z,5.45
2023-04-28T11:31:42.135Z,3.78
2023-04-28T11:34:14.551Z,4.45
2023-04-28T11:36:43.649Z,5.40
2023-04-28T11:39:15.399Z,3.80
2023-04-28T11:41:45.807Z,5.63
2023-04-28T11:44:15.129Z,6.03
2023-04-28T11:46:50.716Z,4.80
2023-04-28T11:49:20.506Z,6.13
2023-04-28T11:51:50.220Z,5.90
2023-04-28T11:54:25.449Z,5.55
2023-04-28T11:56:54.745Z,4.30
2023-04-28T11:59:27.529Z,5.13
2023-04-28T12:01:59.302Z,4.50
2023-04-28T12:04:30.561Z,4.40
2023-04-28T12:07:15.048Z,5.75
2023-04-28T12:09:48.232Z,5.07
2023-04-28T12:12:18.515Z,7.68
2023-04-28T12:14:58.592Z,4.90
2023-04-28T12:17:27.782Z,4.50
2023-04-28T12:19:56.924Z,4.13
2023-04-28T12:22:26.283Z,4.35
2023-04-28T12:25:08.162Z,5.57
2023-04-28T12:27:40.292Z,4.57
2023-04-28T12:30:26.886Z,4.50
2023-04-28T12:32:57.784Z,4.72
2023-04-28T12:35:27.216Z,5.28
2023-04-28T12:37:58.625Z,6.40
2023-04-28T12:40:28.702Z,6.88
2023-04-28T12:42:57.424Z,6.00
2023-04-28T12:45:26.344Z,7.15
2023-04-28T12:47:57.165Z,7.47
2023-04-28T12:50:25.732Z,6.47
2023-04-28T12:52:54.150Z,8.77
2023-04-28T12:55:22.513Z,8.43
2023-04-28T12:57:52.394Z,7.68
2023-04-28T13:00:23.368Z,10.55
2023-04-28T13:02:52.081Z,11.27
2023-04-28T13:05:20.997Z,9.35
2023-04-28T13:07:52.614Z,14.23
2023-04-28T13:10:22.452Z,10.27
2023-04-28T13:12:52.193Z,9.27
2023-04-28T13:15:21.043Z,11.50
2023-04-28T13:17:52.293Z,10.07
2023-04-28T13:20:20.632Z,9.93
2023-04-28T13:22:52.270Z,10.48
2023-04-28T13:25:20.779Z,9.27
2023-04-28T13:27:49.321Z,10.35
2023-04-28T13:30:19.248Z,10.35
2023-04-28T13:32:47.901Z,12.43
2023-04-28T13:35:17.844Z,10.80
2023-04-28T13:37:49.184Z,11.65
2023-04-28T13:40:17.809Z,12.20
2023-04-28T13:42:47.040Z,10.40
2023-04-28T13:45:17.492Z,11.95
2023-04-28T13:47:48.247Z,14.63
2023-04-28T13:50:20.194Z,13.00
2023-04-28T13:52:49.707Z,14.57
2023-04-28T13:55:18.952Z,14.45
2023-04-28T13:57:50.153Z,18.05
2023-04-28T14:00:22.341Z,20.35
2023-04-28T14:02:52.368Z,17.98
2023-04-28T14:05:21.343Z,21.13
2023-04-28T14:07:49.850Z,18.75
2023-04-28T14:10:20.829Z,24.55
2023-04-28T14:12:49.538Z,18.50
2023-04-28T14:15:19.054Z,25.60
2023-04-28T14:17:50.071Z,22.60
2023-04-28T14:20:20.340Z,23.27
2023-04-28T14:22:48.909Z,22.42
2023-04-28T14:25:18.824Z,20.50
2023-04-28T14:27:48.048Z,21.88
2023-04-28T14:30:16.448Z,24.70
2023-04-28T14:32:45.165Z,28.30
2023-04-28T14:35:15.349Z,24.75
2023-04-28T14:37:51.936Z,22.65
2023-04-28T14:40:20.429Z,20.67
2023-04-28T14:42:52.245Z,24.15
2023-04-28T14:45:21.059Z,24.42
2023-04-28T14:47:49.885Z,19.55
2023-04-28T14:50:18.642Z,19.38
2023-04-28T14:52:50.872Z,21.88
2023-04-28T14:55:19.419Z,21.20
2023-04-28T14:57:48.365Z,21.70
2023-04-28T15:00:18.687Z,23.90
2023-04-28T15:02:47.167Z,23.90
2023-04-28T15:05:20.154Z,17.50
2023-04-28T15:07:50.272Z,25.25
2023-04-28T15:10:18.815Z,27.70
2023-04-28T15:12:49.746Z,19.23
2023-04-28T15:15:18.062Z,21.02
2023-04-28T15:17:48.979Z,20.73
2023-04-28T15:20:17.505Z,20.02
2023-04-28T15:22:48.100Z,22.27
2023-04-28T15:25:18.023Z,24.05
2023-04-28T15:27:50.330Z,22.48
2023-04-28T15:30:20.461Z,23.33
2023-04-28T15:32:50.837Z,25.08
2023-04-28T15:35:19.361Z,25.60
2023-04-28T15:37:49.605Z,19.58
2023-04-28T15:40:21.319Z,27.98
2023-04-28T15:42:51.699Z,22.52
2023-04-28T15:45:21.702Z,25.17
2023-04-28T15:47:52.979Z,23.77
2023-04-28T15:50:22.132Z,23.63
2023-04-28T15:52:51.355Z,21.10
2023-04-28T15:55:26.148Z,23.38
2023-04-28T15:57:54.723Z,20.27
2023-04-28T16:00:23.100Z,23.27
2023-04-28T16:02:51.913Z,24.48
2023-04-28T16:05:20.598Z,23.40
2023-04-28T16:07:49.938Z,24.60
2023-04-28T16:10:20.158Z,18.60
2023-04-28T16:12:50.291Z,21.08
2023-04-28T16:15:19.161Z,18.88
2023-04-28T16:17:52.086Z,17.50
2023-04-28T16:20:21.002Z,13.88
2023-04-28T16:22:49.591Z,14.80
2023-04-28T16:25:18.518Z,17.83
2023-04-28T16:27:47.226Z,18.98
2023-04-28T16:30:17.871Z,12.07
2023-04-28T16:33:18.924Z,16.88
2023-04-28T16:35:56.353Z,17.08
2023-04-28T16:38:25.117Z,14.70
2023-04-28T16:40:53.552Z,13.35
2023-04-28T16:43:22.522Z,13.63
2023-04-28T16:45:52.469Z,20.65
2023-04-28T16:48:21.689Z,20.08
2023-04-28T16:50:50.082Z,14.98
2023-04-28T16:53:18.723Z,18.15
2023-04-28T16:55:47.138Z,14.68
2023-04-28T16:58:15.571Z,16.10
2023-04-28T17:00:44.043Z,14.68
2023-04-28T17:03:15.007Z,17.77
2023-04-28T17:05:43.641Z,11.70
2023-04-28T17:08:12.212Z,16.80
2023-04-28T17:10:40.965Z,13.90
2023-04-28T17:13:10.189Z,11.85
2023-04-28T17:15:39.181Z,9.77
2023-04-28T17:18:07.612Z,14.45
2023-04-28T17:20:38.565Z,15.10
2023-04-28T17:23:07.117Z,12.50
2023-04-28T17:25:35.907Z,15.50
2023-04-28T17:28:04.543Z,14.38
2023-04-28T17:30:33.209Z,17.85
2023-04-28T17:33:02.150Z,11.75
2023-04-28T17:35:30.903Z,12.45
2023-04-28T17:38:01.157Z,11.75
2023-04-28T17:40:29.785Z,14.15
2023-04-28T17:42:58.269Z,13.93
2023-04-28T17:45:26.718Z,10.77
2023-04-28T17:47:56.504Z,12.57
2023-04-28T17:50:25.896Z,11.60
2023-04-28T17:52:54.290Z,8.30
2023-04-28T17:55:24.463Z,10.57
2023-04-28T17:57:53.277Z,11.23
2023-04-28T18:00:22.289Z,10.38
2023-04-28T18:02:52.599Z,9.57
2023-04-28T18:05:24.074Z,11.75
2023-04-28T18:07:52.444Z,13.95
2023-04-28T18:10:20.871Z,13.00
2023-04-28T18:12:53.501Z,15.30
2023-04-28T18:15:22.252Z,15.15
2023-04-28T18:17:50.751Z,12.75
2023-04-28T18:20:19.446Z,18.75
2023-04-28T18:22:48.135Z,22.08
2023-04-28T18:25:19.141Z,21.52
2023-04-28T18:27:47.865Z,30.92
2023-04-28T18:30:17.756Z,30.90
2023-04-28T18:32:49.200Z,32.97
2023-04-28T18:35:18.211Z,43.63
2023-04-28T18:37:47.585Z,46.05
2023-04-28T18:40:16.156Z,47.35
2023-04-28T18:42:44.497Z,45.58
2023-04-28T18:45:13.272Z,50.03
2023-04-28T18:47:43.756Z,48.28
2023-04-28T18:50:12.281Z,53.63
2023-04-28T18:52:40.822Z,50.65
2023-04-28T18:55:09.696Z,55.72
2023-04-28T18:57:42.989Z,54.08
2023-04-28T19:00:11.849Z,52.88
2023-04-28T19:02:40.575Z,51.63
2023-04-28T19:05:11.701Z,57.25
2023-04-28T19:07:40.811Z,59.38
2023-04-28T19:10:10.522Z,53.88
2023-04-28T19:12:38.980Z,59.90
2023-04-28T19:15:08.663Z,55.85
2023-04-28T19:17:37.134Z,58.30
2023-04-28T19:20:06.778Z,55.72
2023-04-28T19:22:38.690Z,52.97
2023-04-28T19:25:07.860Z,59.05
2023-04-28T19:27:39.427Z,56.42
2023-04-28T19:30:11.002Z,56.85
2023-04-28T19:32:40.372Z,54.75
2023-04-28T19:35:10.486Z,47.83
2023-04-28T19:37:42.401Z,50.17
2023-04-28T19:40:12.825Z,49.58
2023-04-28T19:42:41.900Z,50.78
2023-04-28T19:45:11.822Z,50.83
2023-04-28T19:47:40.710Z,48.28
2023-04-28T19:50:11.447Z,45.85
2023-04-28T19:52:41.748Z,51.00
2023-04-28T19:55:11.192Z,43.78
2023-04-28T19:57:40.035Z,47.40
2023-04-28T20:00:10.318Z,46.13
2023-04-28T20:02:38.823Z,49.05
2023-04-28T20:05:08.668Z,41.55
2023-04-28T20:07:42.664Z,43.38
2023-04-28T20:10:11.732Z,43.33
2023-04-28T20:12:40.326Z,47.65
2023-04-28T20:15:10.210Z,46.08
2023-04-28T20:17:38.663Z,49.50
2023-04-28T20:20:08.901Z,44.17
2023-04-28T20:22:37.789Z,51.78
2023-04-28T20:25:40.698Z,55.30
2023-04-28T20:28:09.618Z,64.85
2023-04-28T20:30:38.586Z,60.50
2023-04-28T20:33:10.615Z,65.05
2023-04-28T20:35:39.525Z,64.13
2023-04-28T20:38:12.402Z,63.50
2023-04-28T20:40:42.426Z,73.28
2023-04-28T20:43:10.833Z,68.00
2023-04-28T20:45:41.894Z,65.65
2023-04-28T20:48:11.739Z,72.50
2023-04-28T20:50:41.331Z,69.78
2023-04-28T20:53:14.730Z,67.97
2023-04-28T20:55:50.259Z,68.85
2023-04-28T20:58:19.039Z,68.07
2023-04-28T21:00:47.712Z,60.08
2023-04-28T21:03:16.502Z,62.33
2023-04-28T21:05:49.212Z,59.67
2023-04-28T21:08:17.695Z,68.75
2023-04-28T21:10:47.890Z,62.60
2023-04-28T21:13:16.390Z,67.18
2023-04-28T21:15:44.881Z,62.00
2023-04-28T21:18:13.291Z,63.15
2023-04-28T21:20:42.157Z,65.30
2023-04-28T21:23:10.611Z,64.18
2023-04-28T21:25:39.197Z,62.40
2023-04-28T21:28:09.391Z,68.82
2023-04-28T21:30:39.331Z,64.03
2023-04-28T21:33:11.063Z,61.78
2023-04-28T21:35:39.617Z,60.88
2023-04-28T21:38:07.953Z,57.10
2023-04-28T21:40:36.392Z,54.63
2023-04-28T21:43:06.008Z,56.03
2023-04-28T21:45:36.190Z,56.83
2023-04-28T21:48:06.714Z,56.17
2023-04-28T21:50:36.887Z,54.53
2023-04-28T21:53:05.456Z,61.65
2023-04-28T21:55:33.739Z,56.80
2023-04-28T21:58:03.397Z,61.78
2023-04-28T22:00:31.743Z,59.42
2023-04-28T22:03:03.893Z,62.72
2023-04-28T22:05:32.432Z,61.15
2023-04-28T22:08:03.094Z,46.20
2023-04-28T22:10:33.863Z,49.20
2023-04-28T22:13:02.550Z,44.53
2023-04-28T22:15:31.034Z,44.38
2023-04-28T22:18:00.908Z,44.17
2023-04-28T22:20:29.412Z,45.85
2023-04-28T22:22:58.684Z,41.05
2023-04-28T22:25:27.266Z,42.92
2023-04-28T22:27:55.639Z,34.20
2023-04-28T22:30:25.991Z,39.17
2023-04-28T22:32:54.982Z,35.97
2023-04-28T22:35:24.700Z,38.22
2023-04-28T22:37:53.054Z,31.70
2023-04-28T22:40:21.675Z,31.75
2023-04-28T22:42:50.167Z,32.08
2023-04-28T22:45:18.488Z,32.97
2023-04-28T22:47:46.896Z,32.83
2023-04-28T22:50:15.297Z,34.38
2023-04-28T22:52:45.388Z,32.78
2023-04-28T22:55:14.420Z,33.13
2023-04-28T22:57:43.559Z,32.88
2023-04-28T23:00:15.698Z,36.88
2023-04-28T23:02:45.226Z,32.60
2023-04-28T23:05:14.019Z,35.47
2023-04-28T23:07:43.853Z,28.83
2023-04-28T23:10:14.610Z,31.75
2023-04-28T23:12:43.982Z,30.35
2023-04-28T23:15:13.162Z,28.75
2023-04-28T23:17:42.656Z,27.55
2023-04-28T23:20:12.654Z,32.95
2023-04-28T23:22:41.109Z,33.15
2023-04-28T23:25:11.751Z,33.45
2023-04-28T23:27:40.399Z,35.72
2023-04-28T23:30:10.878Z,33.33
2023-04-28T23:32:39.789Z,38.67
2023-04-28T23:35:09.741Z,37.45
2023-04-28T23:37:38.137Z,36.75
2023-04-28T23:40:08.758Z,43.03
2023-04-28T23:42:38.597Z,36.75
2023-04-28T23:45:09.076Z,38.28
2023-04-28T23:47:37.531Z,37.58
2023-04-28T23:50:07.263Z,37.60
2023-04-28T23:52:40.417Z,41.13
2023-04-28T23:55:12.932Z,36.17
2023-04-28T23:57:43.330Z,40.42
